Huvudsida
METAR-TAF:

METAR-TAF

Flygplatser :

Hornafjörðurs flygplats

Höfn, Island

latitud: 64-18N, longitud: 015-13W, höjd: 17 m

Aktuellt väderrapport

Denna rapport gjordes för 2 timmar och 31 minuter sedan, klockan 17:00 UTC
Vind 12 kt från ost/sydost
Temperatur 15°C
Fuktighet 51%
Tryck 1013 hPa
Sikt 10 km eller mer
Få moln på en höjd av 4000 ft

METAR: BIHN 141700Z 11012KT 9999 FEW040 15/05 Q1013

Tid: 19:31 (19:31 UTC)

Väderprognos

Denna rapport gjordes för 3 timmar och 25 minuter sedan, klockan 16:06 UTC
Prognos gäller från 14 kl. 17 UTC till 14 kl. 20 UTC
Vind 10 kt från ost/nordost
Sikt 10 km eller mer
Få moln på en höjd av 2000 ft

TAF: BIHN 141606Z 1417/1420 07010KT 9999 FEW020

Aktuella väderrapporter och prognoser från 4000 flygplatser (METAR- och TAF-rapporter).

De tillgängliga stationerna syns som gula och röda prickar på kartan.

För musen över prickarna för att se namnen på stationerna.

Klicka sedan för att få väderrapporter och prognoser.

För att ändra kartan: Klicka på de gröna knapparna med ett svart kors på för att zooma in; den gröna knappen med ett streck på för att zooma ut; eller på de gröna pilarna för angränsande kartor.


METAR-TAF: